Time;durP1;ratioP1;P1;durP2;ratioP2;P2;SDS_P1;SDS_P2;PMS_P1;PMS_P2;Temp;Humidity;BMP_temperature;BMP_pressure;BME280_temperature;BME280_humidity;BME280_pressure;Samples;Min_cycle;Max_cycle;Signal;HPM_P1;HPM_P2
2022/03/19 00:01:07;;;;;;;16.05;7.15;;;;;;;7.69;100.00;104217.94;5212689;28;20112;-79
2022/03/19 00:03:38;;;;;;;18.27;6.82;;;;;;;7.64;100.00;104221.72;5213844;28;20029;-79
2022/03/19 00:06:08;;;;;;;20.88;6.82;;;;;;;7.58;100.00;104214.84;5210868;28;20468;-79
2022/03/19 00:08:39;;;;;;;18.83;7.35;;;;;;;7.67;100.00;104213.56;5197655;28;20043;-79
2022/03/19 00:11:10;;;;;;;21.67;6.53;;;;;;;7.73;100.00;104214.19;5227235;28;20120;-79
2022/03/19 00:13:40;;;;;;;13.63;7.57;;;;;;;7.72;100.00;104211.56;5228830;28;20036;-80
2022/03/19 00:16:11;;;;;;;17.60;7.50;;;;;;;7.64;100.00;104206.56;5227044;28;20028;-80
2022/03/19 00:18:41;;;;;;;14.70;7.40;;;;;;;7.64;100.00;104211.03;5222590;28;20036;-79
2022/03/19 00:21:12;;;;;;;15.52;6.80;;;;;;;7.60;100.00;104207.63;5219887;28;20028;-80
2022/03/19 00:23:43;;;;;;;18.02;6.90;;;;;;;7.53;100.00;104206.16;5229071;28;20032;-80
2022/03/19 00:26:14;;;;;;;16.23;7.07;;;;;;;7.47;100.00;104206.38;5227349;28;20064;-79
2022/03/19 00:28:45;;;;;;;20.45;7.32;;;;;;;7.40;100.00;104207.59;5227955;28;20033;-79
2022/03/19 00:31:15;;;;;;;17.52;7.35;;;;;;;7.40;100.00;104204.94;5226471;28;20020;-80
2022/03/19 00:33:45;;;;;;;16.98;7.70;;;;;;;7.42;100.00;104205.72;5229209;28;20035;-80
2022/03/19 00:36:16;;;;;;;15.02;7.53;;;;;;;7.48;100.00;104210.78;5227790;28;20025;-80
2022/03/19 00:38:46;;;;;;;18.40;7.70;;;;;;;7.40;100.00;104203.13;5228705;28;20039;-80
2022/03/19 00:41:17;;;;;;;20.80;7.22;;;;;;;7.42;100.00;104203.91;5227815;28;20074;-81
2022/03/19 00:43:48;;;;;;;22.35;6.88;;;;;;;7.38;100.00;104199.66;5228574;28;20354;-80
2022/03/19 00:46:19;;;;;;;14.10;7.25;;;;;;;7.38;100.00;104207.66;5229162;28;20028;-80
2022/03/19 00:48:50;;;;;;;21.15;8.00;;;;;;;7.40;100.00;104208.47;5228999;28;20082;-80
2022/03/19 00:51:20;;;;;;;18.00;8.70;;;;;;;7.38;100.00;104204.09;5228204;28;20059;-80
2022/03/19 00:53:51;;;;;;;20.70;7.95;;;;;;;7.35;100.00;104210.47;5229386;28;20020;-80
2022/03/19 00:56:21;;;;;;;24.83;8.52;;;;;;;7.35;100.00;104202.44;5228522;28;20025;-80
2022/03/19 00:58:52;;;;;;;18.20;7.78;;;;;;;7.35;100.00;104209.59;5227747;28;20036;-80
2022/03/19 01:01:22;;;;;;;18.73;8.57;;;;;;;7.27;100.00;104215.22;5213009;28;20029;-80
2022/03/19 01:03:53;;;;;;;16.42;7.47;;;;;;;7.29;100.00;104196.50;5217681;28;20056;-81
2022/03/19 01:06:23;;;;;;;22.95;7.53;;;;;;;7.25;100.00;104196.59;5227816;28;20439;-80
2022/03/19 01:08:54;;;;;;;16.25;7.28;;;;;;;7.23;100.00;104194.94;5228530;28;20395;-80
2022/03/19 01:11:24;;;;;;;19.05;7.72;;;;;;;7.20;100.00;104192.38;5228339;28;20032;-79
2022/03/19 01:13:55;;;;;;;17.77;7.65;;;;;;;7.17;100.00;104181.81;5227218;28;20020;-75
2022/03/19 01:16:26;;;;;;;16.23;7.20;;;;;;;7.13;100.00;104181.09;5226851;28;20495;-80
2022/03/19 01:18:57;;;;;;;16.35;7.50;;;;;;;7.09;100.00;104179.47;5229863;28;20021;-80
2022/03/19 01:21:27;;;;;;;15.43;7.72;;;;;;;7.10;100.00;104175.00;5228201;28;20059;-79
2022/03/19 01:23:57;;;;;;;20.95;7.82;;;;;;;7.10;100.00;104172.34;5238321;28;20025;-79
2022/03/19 01:26:28;;;;;;;23.17;9.23;;;;;;;7.06;100.00;104168.03;5232893;28;20063;-79
2022/03/19 01:28:58;;;;;;;18.90;7.78;;;;;;;7.07;100.00;104170.66;5233022;28;20308;-78
2022/03/19 01:31:29;;;;;;;16.58;7.80;;;;;;;7.07;100.00;104164.44;5231312;28;20116;-80
2022/03/19 01:33:59;;;;;;;19.15;8.35;;;;;;;7.07;100.00;104167.09;5203292;28;20033;-80
2022/03/19 01:36:29;;;;;;;17.60;7.50;;;;;;;7.01;100.00;104166.44;5228447;28;20025;-80
2022/03/19 01:39:00;;;;;;;21.70;7.13;;;;;;;6.96;100.00;104173.75;5226693;28;20081;-81
2022/03/19 01:41:30;;;;;;;20.10;7.18;;;;;;;6.92;100.00;104166.78;5226654;28;20044;-81
2022/03/19 01:44:01;;;;;;;17.35;7.90;;;;;;;6.91;100.00;104170.41;5227260;28;20067;-80
2022/03/19 01:46:51;;;;;;;21.80;8.75;;;;;;;6.90;100.00;104157.13;5227226;28;20492;-80
2022/03/19 01:49:22;;;;;;;16.33;7.95;;;;;;;6.86;100.00;104160.84;5227429;28;20538;-80
2022/03/19 01:51:53;;;;;;;16.92;7.78;;;;;;;6.86;100.00;104151.03;5226358;28;20025;-80
2022/03/19 01:54:28;;;;;;;19.63;8.40;;;;;;;6.81;100.00;104158.34;5227102;28;20032;-80
2022/03/19 01:57:00;;;;;;;21.83;8.13;;;;;;;6.81;100.00;104158.34;5227889;28;20056;-79
2022/03/19 01:59:34;;;;;;;18.95;8.82;;;;;;;6.87;100.00;104147.44;5225781;28;20112;-78
2022/03/19 02:02:06;;;;;;;33.58;8.68;;;;;;;6.84;100.00;104144.91;5196341;28;20113;-76
2022/03/19 02:04:39;;;;;;;23.33;8.52;;;;;;;6.76;100.00;104149.66;5217755;28;20021;-77
2022/03/19 02:07:11;;;;;;;14.02;7.47;;;;;;;6.73;100.00;104148.00;5225611;28;20017;-77
2022/03/19 02:09:41;;;;;;;23.58;8.35;;;;;;;6.73;100.00;104150.66;5225718;28;20392;-77
2022/03/19 02:12:12;;;;;;;19.52;9.05;;;;;;;6.70;100.00;104149.91;5225425;28;20021;-77
2022/03/19 02:14:44;;;;;;;19.10;8.50;;;;;;;6.73;100.00;104152.47;5225766;28;20111;-76
2022/03/19 02:17:15;;;;;;;26.20;9.15;;;;;;;6.65;100.00;104146.56;5225898;28;20028;-77
2022/03/19 02:19:48;;;;;;;18.67;9.07;;;;;;;6.54;100.00;104148.78;5225757;28;20059;-77
2022/03/19 02:22:21;;;;;;;15.40;8.63;;;;;;;6.53;100.00;104147.91;5225943;28;20167;-77
2022/03/19 02:27:42;;;;;;;19.67;8.45;;;;;;;6.38;100.00;104135.16;5225808;28;20020;-77
2022/03/19 02:30:15;;;;;;;22.45;9.43;;;;;;;6.33;100.00;104137.16;5224500;28;20029;-76
2022/03/19 02:32:49;;;;;;;20.73;9.90;;;;;;;6.38;100.00;104138.69;5225355;28;20037;-77
2022/03/19 02:35:19;;;;;;;29.23;10.18;;;;;;;6.37;100.00;104134.28;5225224;28;20025;-77
2022/03/19 02:37:50;;;;;;;22.52;10.27;;;;;;;6.31;100.00;104130.97;5225555;28;20039;-77
2022/03/19 02:40:22;;;;;;;23.25;10.38;;;;;;;6.21;100.00;104127.78;5225042;28;20366;-77
2022/03/19 02:42:56;;;;;;;19.55;10.07;;;;;;;6.14;100.00;104126.28;5226028;28;20025;-77
2022/03/19 02:45:27;;;;;;;24.43;9.40;;;;;;;6.09;100.00;104130.94;5207319;28;20112;-77
2022/03/19 02:47:57;;;;;;;19.73;9.43;;;;;;;6.05;100.00;104131.97;5226098;28;20366;-77
2022/03/19 02:50:45;;;;;;;23.95;10.18;;;;;;;6.00;100.00;104121.47;5225380;28;20045;-76
2022/03/19 02:53:16;;;;;;;29.42;10.60;;;;;;;6.02;100.00;104122.28;5224451;28;20499;-77
2022/03/19 02:55:47;;;;;;;36.13;10.48;;;;;;;6.01;100.00;104117.88;5224963;28;20068;-78
2022/03/19 02:58:18;;;;;;;24.95;10.70;;;;;;;5.97;100.00;104118.91;5226098;28;20036;-78
2022/03/19 03:00:54;;;;;;;21.83;10.68;;;;;;;5.88;100.00;104112.09;5213039;28;20350;-78
2022/03/19 03:03:25;;;;;;;27.50;10.48;;;;;;;5.84;100.00;104118.47;5210818;28;20043;-77
2022/03/19 03:05:56;;;;;;;23.40;11.07;;;;;;;5.85;100.00;104114.00;5225940;28;20075;-77
2022/03/19 03:08:26;;;;;;;22.13;11.18;;;;;;;5.80;100.00;104110.63;5225867;28;20025;-77
2022/03/19 03:10:57;;;;;;;24.00;10.70;;;;;;;5.77;100.00;104108.94;5225985;28;20703;-78
2022/03/19 03:13:27;;;;;;;25.73;10.93;;;;;;;5.71;100.00;104109.16;5226302;28;20480;-78
2022/03/19 03:15:58;;;;;;;28.73;11.13;;;;;;;5.70;100.00;104118.97;5225142;28;20106;-77
2022/03/19 03:18:30;;;;;;;26.35;11.80;;;;;;;5.66;100.00;104112.00;5224978;28;20116;-76
2022/03/19 03:21:01;;;;;;;26.02;11.27;;;;;;;5.57;100.00;104114.09;5224996;28;20017;-77
2022/03/19 03:23:31;;;;;;;25.33;12.90;;;;;;;5.53;100.00;104107.19;5224773;28;20021;-77
2022/03/19 03:26:02;;;;;;;25.00;11.48;;;;;;;5.52;100.00;104116.94;5224329;28;20103;-77
2022/03/19 03:28:32;;;;;;;26.48;10.70;;;;;;;5.45;100.00;104105.63;5223447;28;20504;-77
2022/03/19 03:31:03;;;;;;;24.65;11.85;;;;;;;5.44;100.00;104109.22;5210969;28;20052;-77
2022/03/19 03:33:33;;;;;;;23.85;11.85;;;;;;;5.42;100.00;104113.75;5224750;28;20152;-77
2022/03/19 03:36:04;;;;;;;25.10;12.35;;;;;;;5.37;100.00;104104.16;5225996;28;20510;-77
2022/03/19 03:38:35;;;;;;;24.33;12.07;;;;;;;5.36;100.00;104107.75;5228305;28;20472;-76
2022/03/19 03:41:05;;;;;;;30.95;13.15;;;;;;;5.41;100.00;104113.78;5227712;28;20020;-77
2022/03/19 03:43:36;;;;;;;31.90;12.48;;;;;;;5.42;100.00;104112.84;5229457;28;20028;-77
2022/03/19 03:46:07;;;;;;;34.05;12.35;;;;;;;5.44;100.00;104109.22;5229633;28;20028;-76
2022/03/19 03:48:38;;;;;;;36.38;12.45;;;;;;;5.51;100.00;104109.00;5230644;28;20029;-78
2022/03/19 03:51:11;;;;;;;25.95;11.68;;;;;;;5.50;100.00;104104.59;5230546;28;20503;-77
2022/03/19 03:53:44;;;;;;;30.42;11.93;;;;;;;5.48;100.00;104104.69;5231117;28;20515;-78
2022/03/19 03:56:15;;;;;;;25.55;11.88;;;;;;;5.39;100.00;104107.66;5228807;28;20104;-77
2022/03/19 03:58:45;;;;;;;25.75;11.80;;;;;;;5.39;100.00;104108.50;5231279;28;20059;-77
2022/03/19 04:01:16;;;;;;;33.22;12.95;;;;;;;5.44;100.00;104105.69;5214465;28;20017;-82
2022/03/19 04:03:47;;;;;;;25.50;12.68;;;;;;;5.41;100.00;104096.00;5217238;28;20025;-79
2022/03/19 04:06:17;;;;;;;26.80;12.68;;;;;;;5.42;100.00;104096.88;5228273;28;20084;-76
2022/03/19 04:08:48;;;;;;;24.17;11.93;;;;;;;5.37;100.00;104093.50;5227730;28;20021;-76
2022/03/19 04:11:18;;;;;;;26.20;12.52;;;;;;;5.37;100.00;104099.72;5227569;28;20029;-77
2022/03/19 04:13:48;;;;;;;24.33;12.73;;;;;;;5.32;100.00;104103.44;5227738;28;20100;-77
2022/03/19 04:16:19;;;;;;;26.92;12.05;;;;;;;5.30;100.00;104106.16;5227179;28;20082;-77
2022/03/19 04:18:50;;;;;;;27.73;13.32;;;;;;;5.37;100.00;104104.16;5227681;28;20028;-76
2022/03/19 04:21:21;;;;;;;27.80;12.32;;;;;;;5.35;100.00;104104.22;5227618;28;20112;-77
2022/03/19 04:23:51;;;;;;;39.90;14.20;;;;;;;5.34;100.00;104105.13;5227440;28;20028;-77
2022/03/19 04:26:22;;;;;;;25.88;11.90;;;;;;;5.25;100.00;104105.44;5226767;28;20025;-77
2022/03/19 04:28:52;;;;;;;27.85;12.45;;;;;;;5.21;100.00;104106.47;5226935;28;20028;-77
2022/03/19 04:31:22;;;;;;;27.20;12.05;;;;;;;5.22;100.00;104104.69;5213765;28;20550;-77
2022/03/19 04:33:53;;;;;;;26.45;12.48;;;;;;;5.22;100.00;104099.34;5227357;28;20079;-77
2022/03/19 04:39:12;;;;;;;28.17;12.10;;;;;;;5.19;100.00;104101.22;5226843;28;20043;-77
2022/03/19 04:41:42;;;;;;;25.42;12.50;;;;;;;5.20;100.00;104097.63;5227000;28;20476;-77
2022/03/19 04:44:13;;;;;;;30.50;11.32;;;;;;;5.19;100.00;104109.19;5226681;28;20036;-76
2022/03/19 04:46:43;;;;;;;26.17;11.73;;;;;;;5.09;100.00;104094.47;5226963;28;20078;-77
2022/03/19 04:49:14;;;;;;;30.50;12.43;;;;;;;5.05;100.00;104095.47;5227705;28;20028;-76
2022/03/19 04:51:44;;;;;;;30.90;13.20;;;;;;;5.08;100.00;104098.03;5231967;28;20021;-82
2022/03/19 04:54:16;;;;;;;29.63;12.95;;;;;;;5.05;100.00;104095.47;5226639;28;20126;-80
2022/03/19 04:56:46;;;;;;;27.05;12.48;;;;;;;5.02;100.00;104092.94;5226611;28;20025;-80
2022/03/19 04:59:17;;;;;;;34.15;12.00;;;;;;;5.04;100.00;104093.75;5227519;28;20039;-81
2022/03/19 05:01:47;;;;;;;31.77;13.55;;;;;;;5.01;100.00;104096.50;5189651;28;20018;-82
2022/03/19 05:04:17;;;;;;;28.13;13.45;;;;;;;4.94;100.00;104089.66;5218229;28;20542;-82
2022/03/19 05:06:48;;;;;;;32.35;14.13;;;;;;;4.90;100.00;104094.19;5225574;28;20075;-82
2022/03/19 05:12:08;;;;;;;28.05;12.52;;;;;;;4.91;100.00;104089.72;5226502;28;20040;-81
2022/03/19 05:14:38;;;;;;;29.23;12.23;;;;;;;4.87;100.00;104090.75;5225888;28;20029;-81
2022/03/19 05:17:09;;;;;;;28.33;13.15;;;;;;;4.87;100.00;104088.09;5225458;28;20032;-80
2022/03/19 05:19:40;;;;;;;26.08;13.02;;;;;;;4.82;100.00;104082.06;5226429;28;20032;-81
2022/03/19 05:22:10;;;;;;;24.13;12.93;;;;;;;4.85;100.00;104098.78;5226513;28;20029;-81
2022/03/19 05:24:41;;;;;;;34.38;13.10;;;;;;;4.85;100.00;104088.16;5226004;28;20100;-81
2022/03/19 05:27:12;;;;;;;33.42;12.80;;;;;;;4.80;100.00;104090.09;5226530;28;20059;-81
2022/03/19 05:29:43;;;;;;;31.48;13.50;;;;;;;4.76;100.00;104085.78;5224225;28;20025;-81
2022/03/19 05:32:14;;;;;;;31.52;14.05;;;;;;;4.72;100.00;104083.28;5215151;28;20490;-81
2022/03/19 05:34:45;;;;;;;26.60;12.95;;;;;;;4.72;100.00;104092.16;5224898;28;20392;-80
2022/03/19 05:37:16;;;;;;;30.52;14.13;;;;;;;4.65;100.00;104086.13;5229340;28;20029;-82
2022/03/19 05:39:46;;;;;;;30.02;13.27;;;;;;;4.64;100.00;104081.72;5230403;28;20025;-81
2022/03/19 05:42:17;;;;;;;25.50;12.73;;;;;;;4.62;100.00;104085.38;5231621;28;20090;-81
2022/03/19 05:44:48;;;;;;;31.33;13.65;;;;;;;4.58;100.00;104097.91;5229691;28;20108;-84
2022/03/19 05:47:18;;;;;;;28.95;14.32;;;;;;;4.55;100.00;104097.97;5230818;28;20021;-81
2022/03/19 05:49:49;;;;;;;32.75;14.60;;;;;;;4.54;100.00;104104.22;5229796;28;20322;-81
2022/03/19 05:52:19;;;;;;;33.08;14.45;;;;;;;4.58;100.00;104102.34;5229705;28;20476;-80
2022/03/19 05:54:50;;;;;;;31.27;13.40;;;;;;;4.55;100.00;104102.44;5229575;28;20036;-79
2022/03/19 05:57:20;;;;;;;29.40;14.07;;;;;;;4.50;100.00;104093.72;5230110;28;20142;-79
2022/03/19 05:59:51;;;;;;;28.10;13.23;;;;;;;4.49;100.00;104099.97;5225349;28;20025;-78
2022/03/19 06:02:21;;;;;;;26.33;13.32;;;;;;;4.54;100.00;104106.88;5217207;28;20017;-81
2022/03/19 06:04:52;;;;;;;33.92;14.25;;;;;;;4.53;100.00;104104.28;5205677;28;20117;-80
2022/03/19 06:07:23;;;;;;;33.15;14.38;;;;;;;4.55;100.00;104113.94;5233069;28;20395;-80
2022/03/19 06:09:54;;;;;;;26.83;13.23;;;;;;;4.62;100.00;104111.97;5227308;28;20024;-77
2022/03/19 06:12:25;;;;;;;37.88;14.57;;;;;;;4.75;100.00;104110.66;5227488;28;20107;-77
2022/03/19 06:14:55;;;;;;;23.63;13.25;;;;;;;4.84;100.00;104109.50;5207460;28;20441;-76
2022/03/19 06:17:26;;;;;;;25.17;13.00;;;;;;;5.01;100.00;104106.28;5225974;28;20039;-75
2022/03/19 06:19:56;;;;;;;31.17;13.20;;;;;;;5.20;100.00;104116.25;5225203;28;20025;-76
2022/03/19 06:22:27;;;;;;;28.48;13.50;;;;;;;5.34;100.00;104110.47;5225131;28;20064;-76
2022/03/19 06:24:57;;;;;;;26.88;12.95;;;;;;;5.53;100.00;104118.69;5224732;28;20430;-77
2022/03/19 06:27:28;;;;;;;23.73;13.45;;;;;;;5.68;100.00;104114.63;5226972;28;20465;-75
2022/03/19 06:29:58;;;;;;;26.35;12.40;;;;;;;5.78;100.00;104123.16;5224253;28;20021;-74
2022/03/19 06:32:29;;;;;;;27.67;11.77;;;;;;;6.03;100.00;104120.50;5226589;28;20049;-74
2022/03/19 06:35:02;;;;;;;28.80;12.63;;;;;;;6.27;100.00;104119.56;5225702;28;20021;-75
2022/03/19 06:37:33;;;;;;;19.15;10.25;;;;;;;6.57;100.00;104125.50;5225327;28;20021;-75
2022/03/19 06:40:06;;;;;;;23.63;11.00;;;;;;;6.86;100.00;104113.66;5224720;28;20090;-77
2022/03/19 06:42:37;;;;;;;23.20;11.07;;;;;;;6.91;100.00;104122.34;5210334;28;20026;-75
2022/03/19 06:45:07;;;;;;;21.65;11.20;;;;;;;7.03;100.00;104110.31;5224441;28;20043;-76
2022/03/19 06:47:38;;;;;;;20.35;11.48;;;;;;;7.27;100.00;104114.59;5224919;28;20487;-76
2022/03/19 06:50:09;;;;;;;26.45;10.60;;;;;;;7.53;100.00;104116.19;5224680;28;20028;-75
2022/03/19 06:52:39;;;;;;;20.88;9.85;;;;;;;7.79;100.00;104114.16;5224765;28;20386;-76
2022/03/19 06:55:09;;;;;;;23.65;9.95;;;;;;;8.02;100.00;104116.66;5224480;28;20025;-76
2022/03/19 06:57:40;;;;;;;21.17;9.82;;;;;;;8.24;100.00;104104.97;5224809;28;20025;-76
2022/03/19 07:00:11;;;;;;;21.25;9.93;;;;;;;8.45;100.00;104111.16;5218193;28;20096;-77
2022/03/19 07:02:50;;;;;;;24.88;9.85;;;;;;;8.52;100.00;104113.44;5210254;28;20033;-75
2022/03/19 07:05:23;;;;;;;20.50;10.27;;;;;;;8.64;100.00;104112.00;5218850;28;20029;-76
2022/03/19 07:07:57;;;;;;;17.00;9.45;;;;;;;8.73;100.00;104108.88;5225077;28;20021;-76
2022/03/19 07:10:28;;;;;;;19.58;9.85;;;;;;;9.10;100.00;104114.25;5227156;28;20021;-76
2022/03/19 07:12:58;;;;;;;21.25;10.10;;;;;;;9.21;100.00;104110.06;5228889;28;20031;-76
2022/03/19 07:15:29;;;;;;;19.30;9.10;;;;;;;9.18;100.00;104117.38;5224819;28;20358;-78
2022/03/19 07:18:01;;;;;;;22.70;9.55;;;;;;;9.20;100.00;104118.19;5222432;28;20029;-78
2022/03/19 07:20:32;;;;;;;24.00;9.90;;;;;;;9.08;100.00;104115.16;5227922;28;20025;-77
2022/03/19 07:23:05;;;;;;;19.88;9.40;;;;;;;9.15;100.00;104114.88;5214351;28;20919;-77
2022/03/19 07:25:37;;;;;;;22.00;10.00;;;;;;;9.43;100.00;104106.28;5217101;28;20045;-77
2022/03/19 07:28:10;;;;;;;17.23;9.43;;;;;;;9.62;100.00;104116.91;5228334;28;20033;-77
2022/03/19 07:30:41;;;;;;;20.08;9.27;;;;;;;9.91;100.00;104112.69;5229669;28;20021;-76
2022/03/19 07:33:11;;;;;;;15.23;8.40;;;;;;;9.89;100.00;104107.41;5228993;28;20111;-77
2022/03/19 07:35:43;;;;;;;20.35;8.55;;;;;;;10.19;100.00;104101.31;5228372;28;20021;-76
2022/03/19 07:38:13;;;;;;;21.38;9.25;;;;;;;10.35;100.00;104102.25;5229159;28;20111;-76
2022/03/19 07:43:33;;;;;;;19.35;8.90;;;;;;;10.79;100.00;104097.03;5228752;28;20037;-77
2022/03/19 07:46:03;;;;;;;19.17;8.25;;;;;;;10.84;100.00;104094.06;5228157;28;20484;-77
2022/03/19 07:48:34;;;;;;;18.10;8.27;;;;;;;11.01;100.00;104095.78;5228519;28;20515;-77
2022/03/19 07:51:04;;;;;;;17.30;7.53;;;;;;;11.15;100.00;104091.31;5227800;28;20040;-77
2022/03/19 07:53:37;;;;;;;20.90;7.90;;;;;;;11.27;100.00;104092.41;5228858;28;20036;-77
2022/03/19 07:56:07;;;;;;;13.65;7.90;;;;;;;11.18;100.00;104090.25;5226912;28;20027;-77
2022/03/19 07:58:37;;;;;;;17.52;7.63;;;;;;;11.34;100.00;104082.13;5228831;28;20415;-77
2022/03/19 08:01:08;;;;;;;17.20;7.50;;;;;;;11.36;100.00;104080.25;5214430;28;20025;-77
2022/03/19 08:03:38;;;;;;;14.77;7.53;;;;;;;11.45;100.00;104086.88;5215138;28;20083;-77
2022/03/19 08:06:09;;;;;;;13.85;7.07;;;;;;;11.53;100.00;104085.44;5207039;28;20021;-78
2022/03/19 08:08:40;;;;;;;18.65;7.32;;;;;;;11.93;100.00;104086.56;5221835;28;20055;-79
2022/03/19 08:11:10;;;;;;;12.50;7.28;;;;;;;12.05;100.00;104074.16;5218811;28;20025;-77
2022/03/19 08:13:41;;;;;;;18.42;8.23;;;;;;;12.00;100.00;104080.78;5230097;28;20500;-77
2022/03/19 08:16:12;;;;;;;14.60;7.30;;;;;;;11.82;100.00;104083.69;5229216;28;20435;-77
2022/03/19 08:18:42;;;;;;;15.45;7.03;;;;;;;12.14;100.00;104080.78;5228861;28;20398;-77
2022/03/19 08:21:13;;;;;;;12.13;6.55;;;;;;;12.06;100.00;104069.66;5225990;28;20021;-77
2022/03/19 08:23:43;;;;;;;15.75;6.85;;;;;;;12.20;100.00;104080.41;5228374;28;20032;-77
2022/03/19 08:26:14;;;;;;;12.32;6.60;;;;;;;12.51;100.00;104081.97;5227936;28;20024;-76
2022/03/19 08:28:44;;;;;;;19.67;7.10;;;;;;;12.44;100.00;104080.63;5227614;28;20059;-76
2022/03/19 08:31:15;;;;;;;14.50;6.78;;;;;;;12.52;100.00;104078.31;5226982;28;20106;-77
2022/03/19 08:33:45;;;;;;;18.33;7.28;;;;;;;12.67;100.00;104082.69;5228165;28;20041;-77
2022/03/19 08:36:16;;;;;;;13.45;6.53;;;;;;;12.77;100.00;104079.38;5227119;28;20541;-77
2022/03/19 08:41:36;;;;;;;15.82;6.70;;;;;;;12.81;100.00;104073.69;5226867;28;20017;-77
2022/03/19 08:44:06;;;;;;;11.93;6.32;;;;;;;12.98;100.00;104082.47;5226550;28;20318;-77
2022/03/19 08:46:37;;;;;;;14.10;6.45;;;;;;;12.72;100.00;104068.91;5227544;28;20056;-76
2022/03/19 08:49:07;;;;;;;15.18;7.03;;;;;;;12.86;100.00;104070.69;5226719;28;20021;-76
2022/03/19 08:51:39;;;;;;;15.27;6.75;;;;;;;13.31;100.00;104071.25;5226850;28;20423;-76
2022/03/19 08:54:28;;;;;;;16.10;6.80;;;;;;;13.42;100.00;104074.91;5226332;28;20191;-76
2022/03/19 08:56:58;;;;;;;15.98;6.85;;;;;;;13.16;100.00;104065.06;5226981;28;20028;-77
2022/03/19 08:59:29;;;;;;;11.45;5.70;;;;;;;13.51;100.00;104061.78;5225536;28;20035;-76
2022/03/19 09:01:59;;;;;;;12.30;5.93;;;;;;;13.75;100.00;104065.41;5212172;28;20074;-76
2022/03/19 09:04:30;;;;;;;11.27;5.60;;;;;;;13.35;100.00;104061.97;5218840;28;20027;-76
2022/03/19 09:07:00;;;;;;;15.65;6.32;;;;;;;13.68;100.00;104064.13;5227947;28;20036;-80
2022/03/19 09:09:31;;;;;;;12.10;5.80;;;;;;;13.77;100.00;104065.31;5228671;28;20363;-83
2022/03/19 09:12:02;;;;;;;14.95;5.70;;;;;;;13.50;98.76;104062.72;5226436;28;20082;-77
2022/03/19 09:14:33;;;;;;;10.68;5.30;;;;;;;13.84;99.10;104064.75;5224992;28;20052;-75
2022/03/19 09:17:03;;;;;;;15.25;5.78;;;;;;;13.69;97.41;104057.75;5227152;28;20060;-78
2022/03/19 09:19:34;;;;;;;11.27;5.50;;;;;;;14.00;93.92;104056.41;5221575;28;20184;-78
2022/03/19 09:22:05;;;;;;;15.07;5.40;;;;;;;14.18;96.32;104051.53;5227458;28;20095;-78
2022/03/19 09:24:36;;;;;;;9.63;5.57;;;;;;;14.25;93.55;104060.91;5227822;28;20028;-77
2022/03/19 09:27:07;;;;;;;14.05;6.00;;;;;;;14.45;92.39;104040.53;5229738;28;20024;-83
2022/03/19 09:29:37;;;;;;;11.65;5.38;;;;;;;14.45;89.99;104043.22;5214944;28;20108;-79
2022/03/19 09:32:10;;;;;;;15.25;5.13;;;;;;;13.87;90.99;104058.31;5200877;28;20054;-79
2022/03/19 09:34:40;;;;;;;10.40;4.65;;;;;;;13.72;92.68;104042.22;5213499;28;20032;-79
2022/03/19 09:37:10;;;;;;;14.13;4.85;;;;;;;13.70;90.93;104048.69;5209594;28;20021;-79
2022/03/19 09:39:41;;;;;;;10.20;5.10;;;;;;;13.90;92.49;104045.44;5226710;28;20059;-79
2022/03/19 09:42:13;;;;;;;9.63;5.10;;;;;;;13.59;93.15;104038.66;5229999;28;20046;-79
2022/03/19 09:44:43;;;;;;;13.52;4.97;;;;;;;13.63;96.26;104042.88;5229902;28;20028;-78
2022/03/19 09:47:14;;;;;;;10.43;4.60;;;;;;;13.80;91.16;104027.31;5213203;28;20023;-79
2022/03/19 09:49:44;;;;;;;11.77;4.88;;;;;;;13.83;87.99;104032.50;5228997;28;20043;-80
2022/03/19 09:52:19;;;;;;;11.18;4.65;;;;;;;13.68;89.83;104032.63;5215082;28;20029;-79
2022/03/19 09:54:50;;;;;;;15.90;5.38;;;;;;;13.90;88.57;104022.97;5217494;28;20028;-79
2022/03/19 09:57:20;;;;;;;15.48;4.90;;;;;;;14.19;92.15;104016.31;5229540;28;20104;-78
2022/03/19 09:59:51;;;;;;;16.58;5.57;;;;;;;14.20;85.79;104014.47;5234478;28;20029;-79
2022/03/19 10:02:21;;;;;;;10.13;5.43;;;;;;;14.43;88.77;104007.38;5211578;28;20104;-79
2022/03/19 10:04:53;;;;;;;11.48;4.70;;;;;;;14.70;84.47;104005.31;5195256;28;20022;-79
2022/03/19 10:10:14;;;;;;;13.10;4.80;;;;;;;15.11;80.57;103990.47;5233371;28;20029;-79
2022/03/19 10:12:46;;;;;;;10.60;4.25;;;;;;;14.87;77.23;103989.66;5223956;28;20025;-79
2022/03/19 10:15:16;;;;;;;10.27;4.00;;;;;;;14.92;73.69;103998.28;5212492;28;20029;-79
2022/03/19 10:17:47;;;;;;;10.23;4.10;;;;;;;14.83;70.70;103986.31;5211517;28;20120;-79
2022/03/19 10:20:17;;;;;;;11.85;4.45;;;;;;;15.02;73.17;103977.66;5230167;28;20028;-80
2022/03/19 10:22:47;;;;;;;13.65;4.47;;;;;;;14.93;71.26;103975.66;5227309;28;20424;-80
2022/03/19 10:25:19;;;;;;;9.07;4.00;;;;;;;14.94;73.09;103970.13;5226382;28;20052;-80
2022/03/19 10:27:50;;;;;;;10.27;4.43;;;;;;;15.10;72.87;103966.22;5227262;28;20017;-80
2022/03/19 10:30:21;;;;;;;11.70;4.63;;;;;;;14.75;69.60;103967.13;5225740;28;20040;-80
2022/03/19 10:32:53;;;;;;;8.52;3.83;;;;;;;14.61;70.68;103951.09;5227653;28;20396;-80
2022/03/19 10:35:28;;;;;;;13.80;4.30;;;;;;;14.64;69.43;103953.59;5225310;28;20028;-80
2022/03/19 10:38:01;;;;;;;12.38;4.35;;;;;;;14.11;66.62;103942.28;5227476;28;20086;-80
2022/03/19 10:40:48;;;;;;;11.52;4.88;;;;;;;13.91;72.11;103952.72;5226656;28;20017;-80
2022/03/19 10:43:22;;;;;;;8.35;3.58;;;;;;;14.12;68.17;103939.47;5226702;28;20082;-80
2022/03/19 10:45:54;;;;;;;10.45;3.83;;;;;;;14.16;65.17;103927.47;5226988;28;20025;-80
2022/03/19 10:48:26;;;;;;;9.45;3.90;;;;;;;14.22;63.25;103923.44;5227315;28;20025;-80
2022/03/19 10:50:57;;;;;;;11.45;3.95;;;;;;;14.34;60.79;103924.34;5226741;28;20511;-79
2022/03/19 10:53:28;;;;;;;8.25;3.40;;;;;;;14.44;62.77;103923.50;5228120;28;20021;-80
2022/03/19 10:56:01;;;;;;;9.50;3.50;;;;;;;14.33;61.88;103909.13;5209107;28;20389;-80
2022/03/19 10:58:31;;;;;;;11.70;3.80;;;;;;;14.32;60.03;103910.97;5226766;28;20036;-80
2022/03/19 11:01:02;;;;;;;10.80;3.20;;;;;;;13.95;56.40;103899.34;5213484;28;20025;-80
2022/03/19 11:03:38;;;;;;;9.13;3.92;;;;;;;14.25;57.67;103899.75;5212443;28;20025;-80
2022/03/19 11:06:10;;;;;;;8.70;2.72;;;;;;;14.01;52.81;103901.63;5226186;28;20090;-80
2022/03/19 11:08:44;;;;;;;7.82;3.33;;;;;;;14.06;54.93;103901.28;5226645;28;20388;-80
2022/03/19 11:11:34;;;;;;;9.23;3.38;;;;;;;14.41;57.51;103885.09;5226528;28;20032;-80
2022/03/19 11:14:07;;;;;;;6.95;3.50;;;;;;;14.57;54.47;103887.50;5225058;28;20396;-81
2022/03/19 11:16:40;;;;;;;8.93;3.45;;;;;;;14.52;54.32;103879.75;5226542;28;20025;-81
2022/03/19 11:19:10;;;;;;;6.03;3.00;;;;;;;14.59;53.09;103874.72;5226425;28;20053;-81
2022/03/19 11:21:41;;;;;;;12.13;4.18;;;;;;;14.48;53.42;103873.72;5227022;28;20545;-81
2022/03/19 11:24:23;;;;;;;10.65;3.35;;;;;;;14.41;52.27;103863.50;5226195;28;20033;-81
2022/03/19 11:26:54;;;;;;;10.95;3.75;;;;;;;14.25;51.03;103863.78;5226832;28;20026;-80
2022/03/19 11:29:27;;;;;;;7.80;3.47;;;;;;;14.19;51.63;103861.53;5218409;28;20539;-80
2022/03/19 11:31:59;;;;;;;9.60;4.15;;;;;;;14.36;52.80;103868.38;5213497;28;20488;-80
2022/03/19 11:34:44;;;;;;;9.13;3.72;;;;;;;14.44;51.77;103860.53;5226209;28;20036;-80
2022/03/19 11:37:14;;;;;;;11.60;3.65;;;;;;;14.60;52.51;103865.63;5226596;28;20112;-80
2022/03/19 11:40:05;;;;;;;12.43;3.80;;;;;;;14.65;51.61;103861.59;5230187;28;20059;-80
2022/03/19 11:42:35;;;;;;;7.40;3.83;;;;;;;14.39;50.39;103833.88;5226927;28;20426;-81
2022/03/19 11:45:09;;;;;;;9.77;4.35;;;;;;;14.44;55.38;103845.19;5227384;28;20031;-79
2022/03/19 11:47:40;;;;;;;9.25;4.32;;;;;;;14.64;55.93;103835.56;5228158;28;20029;-77
2022/03/19 11:50:30;;;;;;;13.00;4.40;;;;;;;14.96;55.59;103805.09;5224041;28;20423;-78